sensor_id;sensor_type;location;lat;lon;timestamp;pressure;altitude;pressure_sealevel;temperature;humidity
10606;BME280;5350;42.698;23.148;2024-01-27T00:00:00;94098.75;;;1.79;87.17
10606;BME280;5350;42.698;23.148;2024-01-27T00:02:27;94084.06;;;1.73;87.30
10606;BME280;5350;42.698;23.148;2024-01-27T00:04:54;94092.75;;;1.78;87.63
10606;BME280;5350;42.698;23.148;2024-01-27T00:07:22;94093.56;;;1.90;87.62
10606;BME280;5350;42.698;23.148;2024-01-27T00:09:50;94098.97;;;1.89;86.94
10606;BME280;5350;42.698;23.148;2024-01-27T00:12:17;94082.63;;;2.00;86.57
10606;BME280;5350;42.698;23.148;2024-01-27T00:14:44;94081.25;;;1.74;87.18
10606;BME280;5350;42.698;23.148;2024-01-27T00:17:10;94084.97;;;1.78;88.60
10606;BME280;5350;42.698;23.148;2024-01-27T00:19:37;94066.28;;;1.88;89.73
10606;BME280;5350;42.698;23.148;2024-01-27T00:22:04;94085.19;;;1.88;88.87
10606;BME280;5350;42.698;23.148;2024-01-27T00:24:32;94078.31;;;1.82;90.39
10606;BME280;5350;42.698;23.148;2024-01-27T00:26:59;94065.25;;;1.89;90.28
10606;BME280;5350;42.698;23.148;2024-01-27T00:29:26;94073.63;;;2.02;87.04
10606;BME280;5350;42.698;23.148;2024-01-27T00:31:53;94074.81;;;1.88;87.89
10606;BME280;5350;42.698;23.148;2024-01-27T00:34:20;94078.66;;;1.86;91.32
10606;BME280;5350;42.698;23.148;2024-01-27T00:36:47;94070.91;;;1.97;90.51
10606;BME280;5350;42.698;23.148;2024-01-27T00:39:15;94082.06;;;1.98;90.56
10606;BME280;5350;42.698;23.148;2024-01-27T00:41:43;94082.72;;;2.05;89.57
10606;BME280;5350;42.698;23.148;2024-01-27T00:44:10;94082.53;;;2.06;90.21
10606;BME280;5350;42.698;23.148;2024-01-27T00:46:37;94080.94;;;2.05;90.16
10606;BME280;5350;42.698;23.148;2024-01-27T00:49:04;94096.28;;;2.07;88.01
10606;BME280;5350;42.698;23.148;2024-01-27T00:51:31;94094.00;;;1.99;88.19
10606;BME280;5350;42.698;23.148;2024-01-27T00:53:58;94079.56;;;1.91;87.14
10606;BME280;5350;42.698;23.148;2024-01-27T00:56:25;94091.94;;;1.78;88.97
10606;BME280;5350;42.698;23.148;2024-01-27T00:58:53;94079.69;;;1.73;91.22
10606;BME280;5350;42.698;23.148;2024-01-27T01:01:20;94081.50;;;1.96;91.01
10606;BME280;5350;42.698;23.148;2024-01-27T01:03:46;94075.41;;;2.02;91.04
10606;BME280;5350;42.698;23.148;2024-01-27T01:06:13;94074.38;;;2.03;91.27
10606;BME280;5350;42.698;23.148;2024-01-27T01:08:40;94076.31;;;2.07;90.57
10606;BME280;5350;42.698;23.148;2024-01-27T01:11:07;94072.13;;;2.18;91.19
10606;BME280;5350;42.698;23.148;2024-01-27T01:13:33;94087.25;;;2.32;90.45
10606;BME280;5350;42.698;23.148;2024-01-27T01:16:02;94074.84;;;2.34;89.88
10606;BME280;5350;42.698;23.148;2024-01-27T01:18:28;94078.75;;;2.49;88.79
10606;BME280;5350;42.698;23.148;2024-01-27T01:20:55;94080.56;;;2.60;86.83
10606;BME280;5350;42.698;23.148;2024-01-27T01:23:22;94082.34;;;2.71;85.79
10606;BME280;5350;42.698;23.148;2024-01-27T01:25:49;94078.16;;;2.70;85.28
10606;BME280;5350;42.698;23.148;2024-01-27T01:28:15;94070.50;;;2.63;85.26
10606;BME280;5350;42.698;23.148;2024-01-27T01:30:42;94068.88;;;2.74;84.52
10606;BME280;5350;42.698;23.148;2024-01-27T01:33:11;94064.25;;;2.76;84.10
10606;BME280;5350;42.698;23.148;2024-01-27T01:35:38;94052.03;;;2.88;81.99
10606;BME280;5350;42.698;23.148;2024-01-27T01:38:05;94062.69;;;3.03;80.78
10606;BME280;5350;42.698;23.148;2024-01-27T01:40:31;94065.97;;;3.10;79.33
10606;BME280;5350;42.698;23.148;2024-01-27T01:42:58;94050.38;;;3.10;79.09
10606;BME280;5350;42.698;23.148;2024-01-27T01:45:25;94045.66;;;3.23;76.41
10606;BME280;5350;42.698;23.148;2024-01-27T01:47:52;94048.47;;;3.34;75.47
10606;BME280;5350;42.698;23.148;2024-01-27T01:50:20;94046.16;;;3.37;74.40
10606;BME280;5350;42.698;23.148;2024-01-27T01:52:47;94054.28;;;3.41;74.16
10606;BME280;5350;42.698;23.148;2024-01-27T01:55:15;94046.75;;;3.56;72.92
10606;BME280;5350;42.698;23.148;2024-01-27T01:57:42;94052.66;;;3.51;71.17
10606;BME280;5350;42.698;23.148;2024-01-27T02:00:11;94033.22;;;3.42;74.00
10606;BME280;5350;42.698;23.148;2024-01-27T02:02:38;94041.97;;;3.36;72.64
10606;BME280;5350;42.698;23.148;2024-01-27T02:05:05;94036.97;;;3.46;71.85
10606;BME280;5350;42.698;23.148;2024-01-27T02:07:35;94044.38;;;3.54;69.07
10606;BME280;5350;42.698;23.148;2024-01-27T02:10:02;94033.59;;;3.62;66.76
10606;BME280;5350;42.698;23.148;2024-01-27T02:12:29;94047.44;;;3.68;62.94
10606;BME280;5350;42.698;23.148;2024-01-27T02:14:56;94052.09;;;3.82;61.81
10606;BME280;5350;42.698;23.148;2024-01-27T02:17:22;94056.44;;;3.77;65.41
10606;BME280;5350;42.698;23.148;2024-01-27T02:19:49;94043.69;;;3.75;65.23
10606;BME280;5350;42.698;23.148;2024-01-27T02:22:16;94053.75;;;3.72;63.08
10606;BME280;5350;42.698;23.148;2024-01-27T02:24:44;94038.47;;;3.75;64.12
10606;BME280;5350;42.698;23.148;2024-01-27T02:27:12;94023.78;;;3.86;61.03
10606;BME280;5350;42.698;23.148;2024-01-27T02:29:38;94020.94;;;4.04;58.83
10606;BME280;5350;42.698;23.148;2024-01-27T02:32:05;94011.72;;;3.96;58.69
10606;BME280;5350;42.698;23.148;2024-01-27T02:34:32;94018.56;;;4.19;57.45
10606;BME280;5350;42.698;23.148;2024-01-27T02:36:59;94022.25;;;4.23;58.37
10606;BME280;5350;42.698;23.148;2024-01-27T02:39:25;94035.59;;;4.27;59.05
10606;BME280;5350;42.698;23.148;2024-01-27T02:41:54;94024.81;;;4.40;59.28
10606;BME280;5350;42.698;23.148;2024-01-27T02:44:20;94035.47;;;4.38;59.26
10606;BME280;5350;42.698;23.148;2024-01-27T02:46:47;94025.06;;;4.38;60.01
10606;BME280;5350;42.698;23.148;2024-01-27T02:49:14;94031.69;;;4.46;58.83
10606;BME280;5350;42.698;23.148;2024-01-27T02:51:41;94032.81;;;4.55;59.25
10606;BME280;5350;42.698;23.148;2024-01-27T02:54:08;94035.38;;;4.50;60.13
10606;BME280;5350;42.698;23.148;2024-01-27T02:56:34;94039.78;;;4.49;61.59
10606;BME280;5350;42.698;23.148;2024-01-27T02:59:02;94048.06;;;4.25;63.83
10606;BME280;5350;42.698;23.148;2024-01-27T03:01:29;94056.50;;;3.98;65.91
10606;BME280;5350;42.698;23.148;2024-01-27T03:03:56;94054.72;;;3.82;66.46
10606;BME280;5350;42.698;23.148;2024-01-27T03:06:23;94073.56;;;3.73;68.39
10606;BME280;5350;42.698;23.148;2024-01-27T03:08:49;94066.69;;;3.50;69.63
10606;BME280;5350;42.698;23.148;2024-01-27T03:11:16;94071.41;;;3.53;70.08
10606;BME280;5350;42.698;23.148;2024-01-27T03:13:43;94057.97;;;3.28;72.28
10606;BME280;5350;42.698;23.148;2024-01-27T03:16:12;94077.66;;;3.24;73.82
10606;BME280;5350;42.698;23.148;2024-01-27T03:18:40;94060.06;;;3.14;75.83
10606;BME280;5350;42.698;23.148;2024-01-27T03:21:06;94054.63;;;3.16;78.29
10606;BME280;5350;42.698;23.148;2024-01-27T03:23:34;94067.00;;;3.25;78.32
10606;BME280;5350;42.698;23.148;2024-01-27T03:26:02;94054.88;;;3.14;79.39
10606;BME280;5350;42.698;23.148;2024-01-27T03:28:29;94051.16;;;3.10;79.91
10606;BME280;5350;42.698;23.148;2024-01-27T03:30:55;94049.88;;;3.13;82.33
10606;BME280;5350;42.698;23.148;2024-01-27T03:33:23;94035.56;;;3.10;84.00
10606;BME280;5350;42.698;23.148;2024-01-27T03:35:51;94041.47;;;3.06;85.67
10606;BME280;5350;42.698;23.148;2024-01-27T03:38:17;94036.63;;;2.98;89.08
10606;BME280;5350;42.698;23.148;2024-01-27T03:40:44;94024.38;;;3.10;89.70
10606;BME280;5350;42.698;23.148;2024-01-27T03:43:11;94020.03;;;3.15;92.93
10606;BME280;5350;42.698;23.148;2024-01-27T03:45:38;94016.38;;;3.28;93.10
10606;BME280;5350;42.698;23.148;2024-01-27T03:48:05;94012.81;;;3.34;90.35
10606;BME280;5350;42.698;23.148;2024-01-27T03:50:33;93996.22;;;3.35;91.50
10606;BME280;5350;42.698;23.148;2024-01-27T03:53:00;94010.47;;;3.33;92.06
10606;BME280;5350;42.698;23.148;2024-01-27T03:55:27;94018.13;;;3.39;91.73
10606;BME280;5350;42.698;23.148;2024-01-27T03:57:54;93987.97;;;3.10;92.53
10606;BME280;5350;42.698;23.148;2024-01-27T04:00:20;94009.47;;;3.34;92.61
10606;BME280;5350;42.698;23.148;2024-01-27T04:02:48;94011.81;;;3.35;94.08
10606;BME280;5350;42.698;23.148;2024-01-27T04:05:14;93997.28;;;3.22;95.75
10606;BME280;5350;42.698;23.148;2024-01-27T04:07:42;94014.16;;;3.37;95.83
10606;BME280;5350;42.698;23.148;2024-01-27T04:10:10;94016.53;;;3.38;96.84
10606;BME280;5350;42.698;23.148;2024-01-27T04:12:37;94009.81;;;3.42;96.84
10606;BME280;5350;42.698;23.148;2024-01-27T04:15:04;94011.41;;;3.43;98.14
10606;BME280;5350;42.698;23.148;2024-01-27T04:17:31;94019.53;;;3.47;98.13
10606;BME280;5350;42.698;23.148;2024-01-27T04:19:58;94004.88;;;3.41;98.72
10606;BME280;5350;42.698;23.148;2024-01-27T04:22:25;94007.47;;;3.57;98.46
10606;BME280;5350;42.698;23.148;2024-01-27T04:24:53;94002.81;;;3.43;98.54
10606;BME280;5350;42.698;23.148;2024-01-27T04:27:20;93997.78;;;3.53;98.13
10606;BME280;5350;42.698;23.148;2024-01-27T04:29:46;93993.88;;;3.50;99.03
10606;BME280;5350;42.698;23.148;2024-01-27T04:32:13;93996.06;;;3.42;100.00
10606;BME280;5350;42.698;23.148;2024-01-27T04:34:40;93999.81;;;3.67;100.00
10606;BME280;5350;42.698;23.148;2024-01-27T04:37:06;94016.38;;;3.61;100.00
10606;BME280;5350;42.698;23.148;2024-01-27T04:39:33;93985.00;;;3.68;100.00
10606;BME280;5350;42.698;23.148;2024-01-27T04:42:01;93988.31;;;3.63;100.00
10606;BME280;5350;42.698;23.148;2024-01-27T04:44:28;93985.31;;;3.71;100.00
10606;BME280;5350;42.698;23.148;2024-01-27T04:46:56;94006.13;;;3.71;100.00
10606;BME280;5350;42.698;23.148;2024-01-27T04:49:23;93996.13;;;3.63;100.00
10606;BME280;5350;42.698;23.148;2024-01-27T04:51:49;93989.38;;;3.46;100.00
10606;BME280;5350;42.698;23.148;2024-01-27T04:54:16;94002.50;;;3.39;100.00
10606;BME280;5350;42.698;23.148;2024-01-27T04:56:43;93988.00;;;3.43;100.00
10606;BME280;5350;42.698;23.148;2024-01-27T04:59:11;94003.72;;;3.48;100.00
10606;BME280;5350;42.698;23.148;2024-01-27T05:01:38;94007.56;;;3.62;100.00
10606;BME280;5350;42.698;23.148;2024-01-27T05:04:05;94010.72;;;3.48;100.00
10606;BME280;5350;42.698;23.148;2024-01-27T05:06:31;94011.25;;;3.33;100.00
10606;BME280;5350;42.698;23.148;2024-01-27T05:08:58;94000.56;;;3.30;100.00
10606;BME280;5350;42.698;23.148;2024-01-27T05:11:25;94017.47;;;3.32;100.00
10606;BME280;5350;42.698;23.148;2024-01-27T05:13:53;94009.78;;;3.09;100.00
10606;BME280;5350;42.698;23.148;2024-01-27T05:16:21;93998.69;;;3.13;100.00
10606;BME280;5350;42.698;23.148;2024-01-27T05:18:48;94002.09;;;3.14;100.00
10606;BME280;5350;42.698;23.148;2024-01-27T05:21:15;94003.44;;;3.16;100.00
10606;BME280;5350;42.698;23.148;2024-01-27T05:23:41;94010.38;;;3.28;100.00
10606;BME280;5350;42.698;23.148;2024-01-27T05:26:08;93991.63;;;3.25;100.00
10606;BME280;5350;42.698;23.148;2024-01-27T05:28:36;94007.00;;;3.44;100.00
10606;BME280;5350;42.698;23.148;2024-01-27T05:31:03;94016.16;;;3.46;100.00
10606;BME280;5350;42.698;23.148;2024-01-27T05:33:31;94003.41;;;3.00;100.00
10606;BME280;5350;42.698;23.148;2024-01-27T05:35:58;94000.81;;;3.00;100.00
10606;BME280;5350;42.698;23.148;2024-01-27T05:38:25;94011.47;;;3.15;100.00
10606;BME280;5350;42.698;23.148;2024-01-27T05:40:53;94012.94;;;3.11;100.00
10606;BME280;5350;42.698;23.148;2024-01-27T05:43:20;94005.13;;;3.11;100.00
10606;BME280;5350;42.698;23.148;2024-01-27T05:45:48;94035.44;;;3.17;100.00
10606;BME280;5350;42.698;23.148;2024-01-27T05:48:14;94020.72;;;3.11;100.00
10606;BME280;5350;42.698;23.148;2024-01-27T05:50:44;94040.91;;;3.04;100.00
10606;BME280;5350;42.698;23.148;2024-01-27T05:53:21;94037.16;;;2.72;100.00
10606;BME280;5350;42.698;23.148;2024-01-27T05:55:47;94043.94;;;2.73;100.00
10606;BME280;5350;42.698;23.148;2024-01-27T05:58:14;94034.69;;;2.65;100.00
10606;BME280;5350;42.698;23.148;2024-01-27T06:00:42;94027.25;;;2.97;100.00
10606;BME280;5350;42.698;23.148;2024-01-27T06:03:09;94043.38;;;2.99;100.00
10606;BME280;5350;42.698;23.148;2024-01-27T06:05:36;94035.41;;;2.89;100.00
10606;BME280;5350;42.698;23.148;2024-01-27T06:08:05;94047.59;;;2.88;100.00
10606;BME280;5350;42.698;23.148;2024-01-27T06:10:32;94055.38;;;3.00;100.00
10606;BME280;5350;42.698;23.148;2024-01-27T06:12:59;94059.41;;;3.07;100.00
10606;BME280;5350;42.698;23.148;2024-01-27T06:15:26;94057.41;;;2.98;100.00
10606;BME280;5350;42.698;23.148;2024-01-27T06:17:52;94074.03;;;2.97;100.00
10606;BME280;5350;42.698;23.148;2024-01-27T06:20:19;94081.50;;;2.93;100.00
10606;BME280;5350;42.698;23.148;2024-01-27T06:22:46;94082.06;;;2.95;100.00
10606;BME280;5350;42.698;23.148;2024-01-27T06:25:14;94082.47;;;3.04;100.00
10606;BME280;5350;42.698;23.148;2024-01-27T06:27:42;94076.81;;;3.07;100.00
10606;BME280;5350;42.698;23.148;2024-01-27T06:30:09;94096.88;;;3.23;100.00
10606;BME280;5350;42.698;23.148;2024-01-27T06:32:37;94100.66;;;3.32;100.00
10606;BME280;5350;42.698;23.148;2024-01-27T06:35:03;94099.75;;;3.38;100.00
10606;BME280;5350;42.698;23.148;2024-01-27T06:37:30;94107.78;;;3.37;100.00
10606;BME280;5350;42.698;23.148;2024-01-27T06:39:57;94105.50;;;3.40;100.00
10606;BME280;5350;42.698;23.148;2024-01-27T06:42:25;94096.47;;;3.59;100.00
10606;BME280;5350;42.698;23.148;2024-01-27T06:44:52;94123.59;;;3.63;100.00
10606;BME280;5350;42.698;23.148;2024-01-27T06:47:19;94131.97;;;3.65;100.00
10606;BME280;5350;42.698;23.148;2024-01-27T06:49:46;94129.75;;;3.74;100.00
10606;BME280;5350;42.698;23.148;2024-01-27T06:52:12;94133.47;;;3.78;100.00
10606;BME280;5350;42.698;23.148;2024-01-27T06:54:39;94125.53;;;3.84;100.00
10606;BME280;5350;42.698;23.148;2024-01-27T06:57:17;94124.38;;;3.92;100.00
10606;BME280;5350;42.698;23.148;2024-01-27T06:59:46;94139.47;;;3.78;100.00
10606;BME280;5350;42.698;23.148;2024-01-27T07:02:13;94110.84;;;3.78;100.00
10606;BME280;5350;42.698;23.148;2024-01-27T07:04:40;94124.56;;;3.74;100.00
10606;BME280;5350;42.698;23.148;2024-01-27T07:07:07;94127.16;;;3.74;100.00
10606;BME280;5350;42.698;23.148;2024-01-27T07:09:33;94124.09;;;3.77;100.00
10606;BME280;5350;42.698;23.148;2024-01-27T07:12:00;94122.84;;;3.79;100.00
10606;BME280;5350;42.698;23.148;2024-01-27T07:14:27;94120.00;;;3.81;100.00
10606;BME280;5350;42.698;23.148;2024-01-27T07:16:55;94130.72;;;3.84;100.00
10606;BME280;5350;42.698;23.148;2024-01-27T07:19:21;94129.78;;;3.90;100.00
10606;BME280;5350;42.698;23.148;2024-01-27T07:21:48;94144.78;;;3.83;100.00
10606;BME280;5350;42.698;23.148;2024-01-27T07:24:15;94144.78;;;3.83;100.00
10606;BME280;5350;42.698;23.148;2024-01-27T07:26:41;94154.53;;;3.76;100.00
10606;BME280;5350;42.698;23.148;2024-01-27T07:29:08;94155.16;;;3.67;100.00
10606;BME280;5350;42.698;23.148;2024-01-27T07:31:35;94166.72;;;3.59;100.00
10606;BME280;5350;42.698;23.148;2024-01-27T07:34:03;94219.97;;;3.68;100.00
10606;BME280;5350;42.698;23.148;2024-01-27T07:36:31;94190.03;;;3.82;100.00
10606;BME280;5350;42.698;23.148;2024-01-27T07:38:58;94207.00;;;3.85;100.00
10606;BME280;5350;42.698;23.148;2024-01-27T07:41:25;94214.81;;;3.85;100.00
10606;BME280;5350;42.698;23.148;2024-01-27T07:43:53;94224.91;;;3.81;100.00
10606;BME280;5350;42.698;23.148;2024-01-27T07:46:20;94230.09;;;3.81;100.00
10606;BME280;5350;42.698;23.148;2024-01-27T07:48:48;94208.78;;;3.84;100.00
10606;BME280;5350;42.698;23.148;2024-01-27T07:51:16;94239.56;;;3.87;100.00
10606;BME280;5350;42.698;23.148;2024-01-27T07:53:43;94234.78;;;3.96;100.00
10606;BME280;5350;42.698;23.148;2024-01-27T07:56:09;94239.44;;;3.94;100.00
10606;BME280;5350;42.698;23.148;2024-01-27T07:58:36;94271.22;;;3.96;99.25
10606;BME280;5350;42.698;23.148;2024-01-27T08:01:03;94262.50;;;3.90;98.76
10606;BME280;5350;42.698;23.148;2024-01-27T08:03:31;94260.56;;;3.97;99.63
10606;BME280;5350;42.698;23.148;2024-01-27T08:05:57;94257.56;;;3.89;98.06
10606;BME280;5350;42.698;23.148;2024-01-27T08:08:25;94225.06;;;3.91;97.61
10606;BME280;5350;42.698;23.148;2024-01-27T08:10:52;94220.50;;;3.98;97.61
10606;BME280;5350;42.698;23.148;2024-01-27T08:13:19;94209.31;;;3.98;96.26
10606;BME280;5350;42.698;23.148;2024-01-27T08:15:45;94220.97;;;3.95;93.82
10606;BME280;5350;42.698;23.148;2024-01-27T08:18:12;94220.34;;;4.05;94.98
10606;BME280;5350;42.698;23.148;2024-01-27T08:20:39;94242.09;;;4.11;92.16
10606;BME280;5350;42.698;23.148;2024-01-27T08:23:06;94264.88;;;4.20;92.38
10606;BME280;5350;42.698;23.148;2024-01-27T08:25:35;94273.25;;;4.22;91.56
10606;BME280;5350;42.698;23.148;2024-01-27T08:28:01;94267.34;;;4.27;92.47
10606;BME280;5350;42.698;23.148;2024-01-27T08:30:28;94278.47;;;4.22;93.20
10606;BME280;5350;42.698;23.148;2024-01-27T08:32:55;94293.47;;;4.15;94.69
10606;BME280;5350;42.698;23.148;2024-01-27T08:35:22;94253.06;;;4.13;94.93
10606;BME280;5350;42.698;23.148;2024-01-27T08:37:49;94193.06;;;4.07;95.50
10606;BME280;5350;42.698;23.148;2024-01-27T08:40:16;94227.16;;;4.06;96.56
10606;BME280;5350;42.698;23.148;2024-01-27T08:42:45;94269.03;;;4.04;95.12
10606;BME280;5350;42.698;23.148;2024-01-27T08:45:11;94266.75;;;4.08;97.06
10606;BME280;5350;42.698;23.148;2024-01-27T08:47:38;94228.31;;;3.98;96.20
10606;BME280;5350;42.698;23.148;2024-01-27T08:50:06;94254.75;;;4.07;95.63
10606;BME280;5350;42.698;23.148;2024-01-27T08:52:33;94209.88;;;4.00;95.77
10606;BME280;5350;42.698;23.148;2024-01-27T08:55:00;94217.16;;;4.15;95.23
10606;BME280;5350;42.698;23.148;2024-01-27T08:57:26;94218.97;;;4.14;93.78
10606;BME280;5350;42.698;23.148;2024-01-27T08:59:55;94212.91;;;4.25;94.63
10606;BME280;5350;42.698;23.148;2024-01-27T09:02:21;94224.34;;;4.24;92.77
10606;BME280;5350;42.698;23.148;2024-01-27T09:04:48;94243.91;;;4.27;93.47
10606;BME280;5350;42.698;23.148;2024-01-27T09:07:16;94253.78;;;4.41;92.04
10606;BME280;5350;42.698;23.148;2024-01-27T09:09:43;94240.63;;;4.48;91.33
10606;BME280;5350;42.698;23.148;2024-01-27T09:12:09;94252.53;;;4.44;92.97
10606;BME280;5350;42.698;23.148;2024-01-27T09:14:36;94254.09;;;4.45;92.46
10606;BME280;5350;42.698;23.148;2024-01-27T09:17:04;94247.25;;;4.55;92.35
10606;BME280;5350;42.698;23.148;2024-01-27T09:19:31;94224.44;;;4.62;92.50
10606;BME280;5350;42.698;23.148;2024-01-27T09:21:57;94235.41;;;4.48;90.43
10606;BME280;5350;42.698;23.148;2024-01-27T09:24:24;94253.25;;;4.39;89.98
10606;BME280;5350;42.698;23.148;2024-01-27T09:26:51;94237.78;;;4.49;90.71
10606;BME280;5350;42.698;23.148;2024-01-27T09:29:17;94228.16;;;4.50;90.66
10606;BME280;5350;42.698;23.148;2024-01-27T09:31:45;94219.63;;;4.54;92.14
10606;BME280;5350;42.698;23.148;2024-01-27T09:34:13;94214.63;;;4.53;89.98
10606;BME280;5350;42.698;23.148;2024-01-27T09:36:40;94198.78;;;4.38;92.47
10606;BME280;5350;42.698;23.148;2024-01-27T09:39:07;94207.63;;;4.37;93.74
10606;BME280;5350;42.698;23.148;2024-01-27T09:41:33;94218.03;;;4.37;92.13
10606;BME280;5350;42.698;23.148;2024-01-27T09:44:01;94213.78;;;4.31;91.70
10606;BME280;5350;42.698;23.148;2024-01-27T09:46:29;94217.78;;;4.38;92.26
10606;BME280;5350;42.698;23.148;2024-01-27T09:48:56;94190.25;;;4.26;92.53
10606;BME280;5350;42.698;23.148;2024-01-27T09:51:25;94220.75;;;4.14;92.38
10606;BME280;5350;42.698;23.148;2024-01-27T09:53:52;94227.16;;;4.06;93.33
10606;BME280;5350;42.698;23.148;2024-01-27T09:56:19;94212.88;;;4.09;93.97
10606;BME280;5350;42.698;23.148;2024-01-27T09:58:47;94230.31;;;4.08;93.79
10606;BME280;5350;42.698;23.148;2024-01-27T10:01:16;94223.94;;;4.16;92.74
10606;BME280;5350;42.698;23.148;2024-01-27T10:03:43;94239.47;;;4.11;93.81
10606;BME280;5350;42.698;23.148;2024-01-27T10:06:10;94252.88;;;4.02;93.91
10606;BME280;5350;42.698;23.148;2024-01-27T10:08:38;94250.72;;;3.99;92.96
10606;BME280;5350;42.698;23.148;2024-01-27T10:11:07;94241.19;;;4.05;94.19
10606;BME280;5350;42.698;23.148;2024-01-27T10:13:33;94248.22;;;4.04;92.50
10606;BME280;5350;42.698;23.148;2024-01-27T10:16:00;94297.81;;;3.98;93.05
10606;BME280;5350;42.698;23.148;2024-01-27T10:18:28;94274.38;;;3.98;93.14
10606;BME280;5350;42.698;23.148;2024-01-27T10:20:55;94252.53;;;3.99;93.65
10606;BME280;5350;42.698;23.148;2024-01-27T10:23:22;94272.91;;;4.02;93.04
10606;BME280;5350;42.698;23.148;2024-01-27T10:25:51;94267.84;;;3.95;93.00
10606;BME280;5350;42.698;23.148;2024-01-27T10:28:18;94265.03;;;3.85;94.01
10606;BME280;5350;42.698;23.148;2024-01-27T10:30:46;94261.97;;;3.88;93.70
10606;BME280;5350;42.698;23.148;2024-01-27T10:33:14;94259.72;;;3.80;94.21
10606;BME280;5350;42.698;23.148;2024-01-27T10:35:41;94252.59;;;3.87;94.65
10606;BME280;5350;42.698;23.148;2024-01-27T10:38:07;94275.31;;;3.92;94.72
10606;BME280;5350;42.698;23.148;2024-01-27T10:40:35;94263.63;;;3.94;95.30
10606;BME280;5350;42.698;23.148;2024-01-27T10:43:04;94255.50;;;3.91;94.92
10606;BME280;5350;42.698;23.148;2024-01-27T10:45:36;94264.81;;;3.87;94.95
10606;BME280;5350;42.698;23.148;2024-01-27T10:48:04;94274.34;;;3.81;95.55
10606;BME280;5350;42.698;23.148;2024-01-27T10:50:34;94270.44;;;3.95;95.94
10606;BME280;5350;42.698;23.148;2024-01-27T10:53:03;94279.81;;;3.96;95.78
10606;BME280;5350;42.698;23.148;2024-01-27T10:55:30;94265.47;;;3.94;95.70
10606;BME280;5350;42.698;23.148;2024-01-27T10:57:58;94253.16;;;3.89;96.00
10606;BME280;5350;42.698;23.148;2024-01-27T11:00:29;94256.00;;;3.88;96.25
10606;BME280;5350;42.698;23.148;2024-01-27T11:02:58;94312.66;;;3.86;96.95
10606;BME280;5350;42.698;23.148;2024-01-27T11:05:27;94268.09;;;3.82;97.43
10606;BME280;5350;42.698;23.148;2024-01-27T11:07:54;94232.88;;;3.91;97.25
10606;BME280;5350;42.698;23.148;2024-01-27T11:10:22;94271.31;;;4.01;96.99
10606;BME280;5350;42.698;23.148;2024-01-27T11:12:50;94258.78;;;3.98;97.30
10606;BME280;5350;42.698;23.148;2024-01-27T11:15:18;94252.81;;;3.86;97.76
10606;BME280;5350;42.698;23.148;2024-01-27T11:17:46;94294.44;;;3.86;97.50
10606;BME280;5350;42.698;23.148;2024-01-27T11:20:13;94293.13;;;3.72;98.91
10606;BME280;5350;42.698;23.148;2024-01-27T11:22:42;94293.00;;;3.78;99.68
10606;BME280;5350;42.698;23.148;2024-01-27T11:25:14;94300.38;;;3.81;99.38
10606;BME280;5350;42.698;23.148;2024-01-27T11:27:43;94304.91;;;3.74;99.34
10606;BME280;5350;42.698;23.148;2024-01-27T11:30:25;94309.66;;;3.77;98.80
10606;BME280;5350;42.698;23.148;2024-01-27T11:32:54;94296.28;;;3.85;97.27
10606;BME280;5350;42.698;23.148;2024-01-27T11:35:21;94301.56;;;3.90;96.20
10606;BME280;5350;42.698;23.148;2024-01-27T11:37:48;94307.88;;;3.94;95.12
10606;BME280;5350;42.698;23.148;2024-01-27T11:40:15;94321.94;;;3.93;92.89
10606;BME280;5350;42.698;23.148;2024-01-27T11:42:41;94301.13;;;3.93;93.30
10606;BME280;5350;42.698;23.148;2024-01-27T11:45:08;94308.41;;;4.08;92.30
10606;BME280;5350;42.698;23.148;2024-01-27T11:47:35;94301.41;;;4.09;93.65
10606;BME280;5350;42.698;23.148;2024-01-27T11:50:04;94311.88;;;4.25;93.24
10606;BME280;5350;42.698;23.148;2024-01-27T11:52:31;94307.22;;;4.27;91.87
10606;BME280;5350;42.698;23.148;2024-01-27T11:54:59;94320.09;;;4.34;90.11
10606;BME280;5350;42.698;23.148;2024-01-27T11:57:26;94317.50;;;4.34;89.11
10606;BME280;5350;42.698;23.148;2024-01-27T11:59:54;94330.03;;;4.37;87.91
10606;BME280;5350;42.698;23.148;2024-01-27T12:02:21;94315.94;;;4.66;86.77
10606;BME280;5350;42.698;23.148;2024-01-27T12:04:48;94323.72;;;4.77;84.58
10606;BME280;5350;42.698;23.148;2024-01-27T12:07:16;94347.25;;;4.82;82.45
10606;BME280;5350;42.698;23.148;2024-01-27T12:09:45;94350.75;;;4.88;82.32
10606;BME280;5350;42.698;23.148;2024-01-27T12:12:13;94356.25;;;4.75;80.95
10606;BME280;5350;42.698;23.148;2024-01-27T12:14:40;94337.31;;;4.79;80.73
10606;BME280;5350;42.698;23.148;2024-01-27T12:17:09;94358.03;;;4.58;81.65
10606;BME280;5350;42.698;23.148;2024-01-27T12:19:36;94372.22;;;4.22;84.28
10606;BME280;5350;42.698;23.148;2024-01-27T12:22:04;94380.63;;;4.13;84.60
10606;BME280;5350;42.698;23.148;2024-01-27T12:24:32;94381.06;;;4.10;85.50
10606;BME280;5350;42.698;23.148;2024-01-27T12:26:59;94393.56;;;3.96;86.11
10606;BME280;5350;42.698;23.148;2024-01-27T12:29:26;94389.13;;;3.96;87.24
10606;BME280;5350;42.698;23.148;2024-01-27T12:31:54;94384.19;;;3.83;88.00
10606;BME280;5350;42.698;23.148;2024-01-27T12:34:21;94367.47;;;3.79;87.68
10606;BME280;5350;42.698;23.148;2024-01-27T12:36:47;94374.47;;;3.67;89.50
10606;BME280;5350;42.698;23.148;2024-01-27T12:39:14;94366.09;;;3.65;90.35
10606;BME280;5350;42.698;23.148;2024-01-27T12:41:42;94392.34;;;3.75;89.46
10606;BME280;5350;42.698;23.148;2024-01-27T12:44:09;94354.41;;;3.91;89.02
10606;BME280;5350;42.698;23.148;2024-01-27T12:46:36;94371.22;;;4.12;87.43
10606;BME280;5350;42.698;23.148;2024-01-27T12:49:04;94374.75;;;4.05;83.41
10606;BME280;5350;42.698;23.148;2024-01-27T12:51:31;94362.28;;;4.07;80.86
10606;BME280;5350;42.698;23.148;2024-01-27T12:53:58;94359.00;;;4.00;80.69
10606;BME280;5350;42.698;23.148;2024-01-27T12:56:24;94366.94;;;4.05;78.91
10606;BME280;5350;42.698;23.148;2024-01-27T12:58:52;94353.94;;;4.34;76.34
10606;BME280;5350;42.698;23.148;2024-01-27T13:01:19;94355.97;;;4.60;74.32
10606;BME280;5350;42.698;23.148;2024-01-27T13:03:46;94364.16;;;4.97;72.21
10606;BME280;5350;42.698;23.148;2024-01-27T13:06:13;94357.53;;;5.22;69.68